Scappoose, OR (97056)

1:01 AM PST on December 06, 2016 (GMT -0800)
4th & E.M. Watts | | Change Station

Elev 62 ft 45.75 °N, 122.88 °W | Updated 28 seconds ago

Overcast
Overcast
34.7 °F
Feels Like 35 °F
N
0.0
Wind Variable Wind from WNW

Today
High -- | Low -- °F
--% Chance of Precip.
Yesterday
High -- | Low -- °F
Precip. -- in
Pressure 30.01 in
Visibility 10.0 miles
Clouds Overcast 1200 ft
Windchill 35 °F
Dew Point 34 °F
Humidity 99%
Rainfall 0.00 in
Snow Depth Not available.
7:38 AM 4:27 PM
Waxing Crescent, 40% visible
METAR KSPB 060853Z AUTO 28004KT 10SM OVC012 02/01 A3001 RMK AO2 SLP161 T00170006 56003 TSNO
Pressure 30.01 in
Visibility 10.0 miles
Clouds Overcast 1200 ft
Windchill 35 °F
Dew Point 34 °F
Humidity 99%
Rainfall 0.00 in
Snow Depth Not available.
7:38 AM 4:27 PM
Waxing Crescent, 40% visible
METAR KSPB 060853Z AUTO 28004KT 10SM OVC012 02/01 A3001 RMK AO2 SLP161 T00170006 56003 TSNO

10-Day Weather Forecast

Almanac

Astronomy

Dec. 06, 2016 Rise Set
Actual Time
Civil Twilight
Nautical Twilight
Astronomical Twilight
Moon
Length of Visible Light
Length of Day
Tomorrow will be .
, % of the Moon is Illuminated

Today's Extremes

State Highs State Lows

Community

WunderPhotos

Upload Photos

1,955,935 photos uploaded!

WunderBlog® & News

Nearby

Air Quality

  Air Quality AQ Index Pollutant
Not available.

Snow Depth

Station Depth Elevation

Earthquake Activity

City Distance Mag. Time & Date
Minimum magnitude displayed is 2.5.

Coastal Water Temperatures

Place Temperature

Stations

Nearby Weather Stations

Station Location Temp. Windchill Dew Point Humidity Wind Precip. Elev Updated Type
                   

Watches & Warnings

Winter Weather Advisory
Issued: 9:01 PM PST Dec. 5, 2016 – National Weather Service

... Winter Weather Advisory now in effect until 3 am PST Tuesday
above 700 feet for the central Willamette Valley and the Portland
and Vancouver Metro area...

The Winter Weather Advisory for snow is now in effect until 3 am
PST Tuesday for elevations above 700 feet.

* Timing... snow showers at times through late tonight.

* Accumulation... 1 to 2 inches above 700 feet. Any
accumulations below 700 feet will be light but a brief
dusting could coat surfaces overnight.

* Impacts... travel may become difficult as roads become snow
covered.

Precautionary/preparedness actions...

A Winter Weather Advisory for snow means that periods of snow
will cause primarily travel difficulties. Be prepared for snow
covered roads and limited visibilities... and use caution while
driving.